Terminal Aerodrome Forecast
Issued by NWS Louisville, KY

Home | Current Version | Previous Version | Text Only | Print | Product List | Glossary On
Versions: 1 2 3 4 5 6 7 8 9 10 11 12 13 14 15 16 17 18 19 20
000
FTUS43 KLMK 180600 AAA
TAFBWG
TAF AMD
KBWG 180632Z 1807/1906 00000KT 2SM BR SKC
      TEMPO 1807/1811 1/4SM FG
     FM181400 07006KT P6SM SCT250
     FM190100 09006KT P6SM -SHRA BKN040=

USA.gov is the U.S. government's official web portal to all federal, state and local government web resources and services.